EST,Max TemperatureF,Mean TemperatureF,Min TemperatureF,Max Dew PointF,MeanDew PointF,Min DewpointF,Max Humidity, Mean Humidity, Min Humidity, Max Sea Level PressureIn, Mean Sea Level PressureIn, Min Sea Level PressureIn, Max VisibilityMiles, Mean VisibilityMiles, Min VisibilityMiles, Max Wind SpeedMPH, Mean Wind SpeedMPH, Max Gust SpeedMPH,PrecipitationIn, CloudCover, Events, WindDirDegrees
2012-11-1,49,44,38,35,30,24,79,64,49,29.85,29.79,29.75,10,10,10,20,12,25,0.00,7,,298
2012-11-2,46,40,33,32,30,26,89,71,53,30.14,30.00,29.86,10,10,10,17,9,24,T,5,,324
2012-11-3,42,37,31,30,29,27,92,75,57,30.24,30.20,30.15,10,10,10,9,4,13,T,6,,353
2012-11-4,42,34,26,30,26,23,82,66,49,30.25,30.22,30.19,10,10,8,9,2,21,0.00,6,,23
2012-11-5,40,32,24,28,25,22,88,74,59,30.26,30.22,30.18,10,9,7,10,4,13,0.00,4,,67
2012-11-6,46,36,26,29,27,23,92,73,53,30.17,30.05,29.97,10,8,5,16,7,18,0.00,7,,133
2012-11-7,48,41,33,29,28,26,75,59,42,30.18,30.09,29.98,10,9,6,13,6,16,0.00,3,,72
2012-11-8,46,36,26,37,31,23,92,75,58,30.24,30.18,30.12,6,4,2,10,4,15,0.00,6,,194
2012-11-9,57,46,34,40,37,30,96,74,51,30.17,30.12,30.06,7,5,2,12,7,15,0.00,6,,156
2012-11-10,66,58,49,50,45,41,80,66,52,30.09,30.02,29.92,10,7,4,22,9,30,T,7,Rain,141
2012-11-11,71,64,57,51,47,45,72,60,47,30.03,29.93,29.85,10,10,6,33,18,46,0.03,5,Rain,189
2012-11-12,57,45,32,54,36,20,93,76,59,30.27,30.01,29.87,10,7,2,29,17,37,0.30,8,Rain-Snow,251
2012-11-13,38,32,25,23,20,19,81,65,48,30.54,30.45,30.30,10,9,5,18,6,25,T,5,Snow,258
2012-11-14,44,34,23,25,22,18,81,62,43,30.60,30.53,30.45,10,9,7,10,5,13,0.00,4,,150
2012-11-15,46,36,25,30,26,21,88,71,53,30.44,30.40,30.36,8,6,3,9,2,10,0.00,3,,179
2012-11-16,55,41,26,37,30,22,92,69,46,30.51,30.47,30.40,9,5,2,10,3,,0.00,1,,193
2012-11-17,54,41,27,35,28,25,92,65,38,30.61,30.54,30.49,9,4,0,12,5,14,0.00,3,Fog,158
2012-11-18,57,44,31,36,30,26,92,63,33,30.53,30.48,30.39,10,6,2,12,6,17,0.00,2,,119
2012-11-19,56,44,31,35,31,27,82,63,43,30.38,30.29,30.17,10,8,5,9,4,16,0.00,6,,132
2012-11-20,54,47,39,41,37,32,76,68,59,30.17,30.13,30.09,10,8,6,9,4,10,T,7,,166
2012-11-21,53,43,33,45,40,33,100,86,71,30.25,30.19,30.12,7,3,0,13,5,15,0.00,4,Fog,183
2012-11-22,62,51,40,47,43,39,96,72,47,30.12,29.98,29.73,10,5,1,32,13,31,0.16,4,Rain,191
2012-11-23,56,44,32,48,29,20,78,65,52,30.09,29.87,29.70,10,9,2,31,21,41,T,8,Snow,276
2012-11-24,33,32,30,21,20,18,69,60,51,30.18,30.12,30.03,10,10,10,21,10,26,T,8,,292
2012-11-25,38,34,29,27,24,19,78,71,63,30.02,29.92,29.84,10,10,9,18,10,23,T,8,Snow,226
2012-11-26,34,32,30,27,20,16,69,60,51,30.34,30.19,30.02,10,10,9,15,8,17,T,8,Snow,320
2012-11-27,37,29,20,21,18,14,77,63,48,30.39,30.32,30.23,10,10,10,16,7,22,0.00,4,,245
2012-11-28,41,34,26,28,24,18,85,67,48,30.32,30.28,30.20,10,9,2,21,9,25,T,5,Snow,249
2012-11-29,51,42,32,29,27,24,72,57,42,30.28,30.22,30.16,10,10,8,16,9,20,0.00,4,,193
2012-11-30,40,38,36,36,33,28,85,75,64,30.25,30.19,30.16,8,5,3,17,10,21,T,8,Rain-Snow,74